createdAt,value
2019-05-30T00:00:26.899Z,3.13
2019-05-30T00:01:12.835Z,2.80
2019-05-30T00:01:58.638Z,2.70
2019-05-30T00:02:44.667Z,3.17
2019-05-30T00:03:30.354Z,2.90
2019-05-30T00:04:16.182Z,3.30
2019-05-30T00:05:02.699Z,3.03
2019-05-30T00:05:48.483Z,2.93
2019-05-30T00:06:34.115Z,3.00
2019-05-30T00:07:19.773Z,2.93
2019-05-30T00:08:05.981Z,3.30
2019-05-30T00:08:51.677Z,3.70
2019-05-30T00:09:37.328Z,3.40
2019-05-30T00:10:23.097Z,3.50
2019-05-30T00:11:08.908Z,2.80
2019-05-30T00:11:58.584Z,3.30
2019-05-30T00:12:44.658Z,3.23
2019-05-30T00:13:30.373Z,3.03
2019-05-30T00:14:16.163Z,3.40
2019-05-30T00:15:05.894Z,2.97
2019-05-30T00:15:50.743Z,3.47
2019-05-30T00:16:36.943Z,2.70
2019-05-30T00:17:23.110Z,2.90
2019-05-30T00:18:08.776Z,2.90
2019-05-30T00:18:54.656Z,2.70
2019-05-30T00:19:40.578Z,2.70
2019-05-30T00:20:26.168Z,2.60
2019-05-30T00:21:12.049Z,2.90
2019-05-30T00:21:58.666Z,2.83
2019-05-30T00:22:44.891Z,2.90
2019-05-30T00:23:31.096Z,3.00
2019-05-30T00:24:17.396Z,3.03
2019-05-30T00:25:04.325Z,3.07
2019-05-30T00:25:50.462Z,3.00
2019-05-30T00:26:36.629Z,3.60
2019-05-30T00:27:22.330Z,3.40
2019-05-30T00:28:08.048Z,2.93
2019-05-30T00:28:53.963Z,3.10
2019-05-30T00:29:40.019Z,2.63
2019-05-30T00:30:25.801Z,3.27
2019-05-30T00:31:11.900Z,3.07
2019-05-30T00:31:59.459Z,3.10
2019-05-30T00:32:47.744Z,2.67
2019-05-30T00:33:34.255Z,2.80
2019-05-30T00:34:20.385Z,3.00
2019-05-30T00:35:07.330Z,2.70
2019-05-30T00:35:55.597Z,3.23
2019-05-30T00:36:42.999Z,2.87
2019-05-30T00:37:29.540Z,3.13
2019-05-30T00:38:15.637Z,3.20
2019-05-30T00:39:01.941Z,2.80
2019-05-30T00:39:48.497Z,2.70
2019-05-30T00:40:34.819Z,3.23
2019-05-30T00:41:21.527Z,2.70
2019-05-30T00:42:07.969Z,2.60
2019-05-30T00:42:54.380Z,3.00
2019-05-30T00:43:40.655Z,2.60
2019-05-30T00:44:26.822Z,2.53
2019-05-30T00:45:20.871Z,2.87
2019-05-30T00:46:02.145Z,2.60
2019-05-30T00:46:48.397Z,2.67
2019-05-30T00:47:34.619Z,2.70
2019-05-30T00:48:20.369Z,2.87
2019-05-30T00:49:06.668Z,2.80
2019-05-30T00:49:52.647Z,2.70
2019-05-30T00:50:38.875Z,2.77
2019-05-30T00:51:24.511Z,2.87
2019-05-30T00:52:10.229Z,2.50
2019-05-30T00:52:56.674Z,2.20
2019-05-30T00:53:43.139Z,2.60
2019-05-30T00:54:29.128Z,2.53
2019-05-30T00:55:15.172Z,2.77
2019-05-30T00:56:01.826Z,2.40
2019-05-30T00:56:48.970Z,2.40
2019-05-30T00:57:34.692Z,2.70
2019-05-30T00:58:20.716Z,2.47
2019-05-30T00:59:07.081Z,2.60
2019-05-30T00:59:53.155Z,2.60
2019-05-30T01:00:43.919Z,2.70
2019-05-30T01:01:27.534Z,2.53
2019-05-30T01:02:13.262Z,2.97
2019-05-30T01:02:59.903Z,2.57
2019-05-30T01:03:46.935Z,2.63
2019-05-30T01:04:33.644Z,2.50
2019-05-30T01:05:19.843Z,2.57
2019-05-30T01:06:07.243Z,3.17
2019-05-30T01:06:53.960Z,2.30
2019-05-30T01:07:40.056Z,2.70
2019-05-30T01:08:26.203Z,2.60
2019-05-30T01:09:12.789Z,2.37
2019-05-30T01:09:59.162Z,2.33
2019-05-30T01:10:45.459Z,2.80
2019-05-30T01:11:31.699Z,2.37
2019-05-30T01:12:17.893Z,2.50
2019-05-30T01:13:05.206Z,2.73
2019-05-30T01:13:51.223Z,2.80
2019-05-30T01:14:37.413Z,2.73
2019-05-30T01:15:23.131Z,3.10
2019-05-30T01:16:08.775Z,2.50
2019-05-30T01:16:54.525Z,2.87
2019-05-30T01:17:40.440Z,2.53
2019-05-30T01:18:26.879Z,2.60
2019-05-30T01:19:13.434Z,2.60
2019-05-30T01:20:00.942Z,2.50
2019-05-30T01:20:47.539Z,2.97
2019-05-30T01:21:33.421Z,2.40
2019-05-30T01:22:19.589Z,2.70
2019-05-30T01:23:05.802Z,2.13
2019-05-30T01:23:51.455Z,2.77
2019-05-30T01:24:37.247Z,2.77
2019-05-30T01:25:23.080Z,2.70
2019-05-30T01:26:09.155Z,2.67
2019-05-30T01:26:54.971Z,2.63
2019-05-30T01:27:40.696Z,2.80
2019-05-30T01:28:26.368Z,2.40
2019-05-30T01:29:12.571Z,2.80
2019-05-30T01:29:59.376Z,2.80
2019-05-30T01:30:58.861Z,2.60
2019-05-30T01:31:33.182Z,2.73
2019-05-30T01:32:28.591Z,2.47
2019-05-30T01:33:14.743Z,3.07
2019-05-30T01:34:01.530Z,2.70
2019-05-30T01:34:47.752Z,2.60
2019-05-30T01:35:33.632Z,2.60
2019-05-30T01:36:19.383Z,2.57
2019-05-30T01:37:05.836Z,2.50
2019-05-30T01:37:52.046Z,2.83
2019-05-30T01:38:37.845Z,2.77
2019-05-30T01:39:24.099Z,2.83
2019-05-30T01:40:10.075Z,2.70
2019-05-30T01:40:56.111Z,2.77
2019-05-30T01:41:41.767Z,3.00
2019-05-30T01:42:27.434Z,2.37
2019-05-30T01:43:13.623Z,2.77
2019-05-30T01:43:59.841Z,2.80
2019-05-30T01:44:45.876Z,2.73
2019-05-30T01:45:32.062Z,3.00
2019-05-30T01:46:17.851Z,2.50
2019-05-30T01:47:04.216Z,2.67
2019-05-30T01:47:50.147Z,3.07
2019-05-30T01:48:35.850Z,2.73
2019-05-30T01:49:22.072Z,2.67
2019-05-30T01:50:10.211Z,2.60
2019-05-30T01:50:56.380Z,2.40
2019-05-30T01:51:42.076Z,2.50
2019-05-30T01:52:27.839Z,2.87
2019-05-30T01:53:14.293Z,2.43
2019-05-30T01:54:00.579Z,2.70
2019-05-30T01:54:46.885Z,2.40
2019-05-30T01:55:32.926Z,2.57
2019-05-30T01:56:19.077Z,3.10
2019-05-30T01:57:05.363Z,2.60
2019-05-30T01:57:51.022Z,2.73
2019-05-30T01:58:36.599Z,2.80
2019-05-30T01:59:22.332Z,2.40
2019-05-30T02:00:19.937Z,2.50
2019-05-30T02:01:07.224Z,2.60
2019-05-30T02:01:46.527Z,2.80
2019-05-30T02:02:32.199Z,2.63
2019-05-30T02:03:17.951Z,2.53
2019-05-30T02:04:03.647Z,2.60
2019-05-30T02:04:49.730Z,2.73
2019-05-30T02:05:35.903Z,2.50
2019-05-30T02:06:21.748Z,2.80
2019-05-30T02:07:07.414Z,2.87
2019-05-30T02:07:53.526Z,2.67
2019-05-30T02:08:39.248Z,2.43
2019-05-30T02:09:25.031Z,2.70
2019-05-30T02:10:11.038Z,2.67
2019-05-30T02:10:56.764Z,2.70
2019-05-30T02:11:43.032Z,2.70
2019-05-30T02:12:28.823Z,2.40
2019-05-30T02:13:14.520Z,2.70
2019-05-30T02:14:01.490Z,2.60
2019-05-30T02:14:47.559Z,2.57
2019-05-30T02:15:33.970Z,2.30
2019-05-30T02:16:20.120Z,3.03
2019-05-30T02:17:07.743Z,2.33
2019-05-30T02:17:53.937Z,2.63
2019-05-30T02:18:40.402Z,2.40
2019-05-30T02:19:26.721Z,2.50
2019-05-30T02:20:13.584Z,2.63
2019-05-30T02:20:59.847Z,2.97
2019-05-30T02:21:46.751Z,3.17
2019-05-30T02:22:33.067Z,2.70
2019-05-30T02:23:19.072Z,2.67
2019-05-30T02:24:05.944Z,2.53
2019-05-30T02:24:52.270Z,2.77
2019-05-30T02:25:38.298Z,2.80
2019-05-30T02:26:24.206Z,3.00
2019-05-30T02:27:10.403Z,2.63
2019-05-30T02:27:56.579Z,2.90
2019-05-30T02:28:42.567Z,2.63
2019-05-30T02:29:28.731Z,2.33
2019-05-30T02:30:20.850Z,2.67
2019-05-30T02:31:09.676Z,2.60
2019-05-30T02:31:56.340Z,2.70
2019-05-30T02:32:42.500Z,3.00
2019-05-30T02:33:28.556Z,2.70
2019-05-30T02:34:14.808Z,2.83
2019-05-30T02:35:00.878Z,2.97
2019-05-30T02:35:46.957Z,3.17
2019-05-30T02:36:32.669Z,3.00
2019-05-30T02:37:21.403Z,3.10
2019-05-30T02:38:07.999Z,2.73
2019-05-30T02:38:54.902Z,3.00
2019-05-30T02:39:40.758Z,3.07
2019-05-30T02:40:29.064Z,3.03
2019-05-30T02:41:15.724Z,3.03
2019-05-30T02:42:03.255Z,3.10
2019-05-30T02:42:49.983Z,2.47
2019-05-30T02:43:36.354Z,3.53
2019-05-30T02:44:22.280Z,2.70
2019-05-30T02:45:11.947Z,2.90
2019-05-30T02:45:56.805Z,2.63
2019-05-30T02:46:43.106Z,3.07
2019-05-30T02:47:29.104Z,3.10
2019-05-30T02:48:15.181Z,3.30
2019-05-30T02:49:03.890Z,2.67
2019-05-30T02:49:49.501Z,3.17
2019-05-30T02:50:35.931Z,3.03
2019-05-30T02:51:21.962Z,3.27
2019-05-30T02:52:08.650Z,2.63
2019-05-30T02:52:55.135Z,2.97
2019-05-30T02:53:41.439Z,3.00
2019-05-30T02:54:27.238Z,3.43
2019-05-30T02:55:14.018Z,2.83
2019-05-30T02:56:01.401Z,3.10
2019-05-30T02:56:48.141Z,3.63
2019-05-30T02:57:34.684Z,3.63
2019-05-30T02:58:21.023Z,3.17
2019-05-30T02:59:09.262Z,3.10
2019-05-30T02:59:55.440Z,3.50
2019-05-30T03:00:41.593Z,3.13
2019-05-30T03:01:28.920Z,3.20
2019-05-30T03:02:17.692Z,3.00
2019-05-30T03:03:07.399Z,3.07
2019-05-30T03:03:54.920Z,2.97
2019-05-30T03:04:41.332Z,3.13
2019-05-30T03:05:27.553Z,3.07
2019-05-30T03:06:14.145Z,3.27
2019-05-30T03:07:02.096Z,3.60
2019-05-30T03:07:48.496Z,2.77
2019-05-30T03:08:34.345Z,2.90
2019-05-30T03:09:20.405Z,3.20
2019-05-30T03:10:09.421Z,2.87
2019-05-30T03:10:55.161Z,3.00
2019-05-30T03:11:40.829Z,2.60
2019-05-30T03:12:26.602Z,2.70
2019-05-30T03:13:13.079Z,3.47
2019-05-30T03:13:59.068Z,3.57
2019-05-30T03:14:45.401Z,3.20
2019-05-30T03:15:33.007Z,3.30
2019-05-30T03:16:19.035Z,3.30
2019-05-30T03:17:07.214Z,3.20
2019-05-30T03:17:52.813Z,3.37
2019-05-30T03:18:39.126Z,2.80
2019-05-30T03:19:25.452Z,3.17
2019-05-30T03:20:21.482Z,2.87
2019-05-30T03:20:59.793Z,3.00
2019-05-30T03:21:45.564Z,3.00
2019-05-30T03:22:32.401Z,3.27
2019-05-30T03:23:18.641Z,2.90
2019-05-30T03:24:05.142Z,3.13
2019-05-30T03:24:52.335Z,2.95
2019-05-30T03:25:38.283Z,2.93
2019-05-30T03:26:25.713Z,3.27
2019-05-30T03:27:14.017Z,3.33
2019-05-30T03:28:00.239Z,3.13
2019-05-30T03:28:46.879Z,3.10
2019-05-30T03:29:33.060Z,3.77
2019-05-30T03:30:27.508Z,3.47
2019-05-30T03:31:20.365Z,3.20
2019-05-30T03:31:57.302Z,3.50
2019-05-30T03:33:40.796Z,3.10
2019-05-30T03:34:27.857Z,3.30
2019-05-30T03:35:14.431Z,3.10
2019-05-30T03:35:56.033Z,3.23
2019-05-30T03:36:42.562Z,2.87
2019-05-30T03:37:30.959Z,2.93
2019-05-30T03:38:17.335Z,3.23
2019-05-30T03:39:05.970Z,3.30
2019-05-30T03:39:53.320Z,3.60
2019-05-30T03:40:39.349Z,3.77
2019-05-30T03:41:25.511Z,3.43
2019-05-30T03:42:11.850Z,3.30
2019-05-30T03:42:58.892Z,3.07
2019-05-30T03:43:44.603Z,3.13
2019-05-30T03:44:30.578Z,3.60
2019-05-30T03:45:17.626Z,3.63
2019-05-30T03:46:06.741Z,4.10
2019-05-30T03:46:57.461Z,3.17
2019-05-30T03:47:48.914Z,3.33
2019-05-30T03:48:36.125Z,3.53
2019-05-30T03:49:26.372Z,3.25
2019-05-30T03:50:17.252Z,3.93
2019-05-30T03:51:04.199Z,3.17
2019-05-30T03:51:51.058Z,3.30
2019-05-30T03:52:37.366Z,3.50
2019-05-30T03:53:23.433Z,3.60
2019-05-30T03:54:11.769Z,3.33
2019-05-30T03:54:59.324Z,3.40
2019-05-30T03:55:49.520Z,3.10
2019-05-30T03:56:40.848Z,3.20
2019-05-30T03:57:31.498Z,3.60
2019-05-30T03:58:32.948Z,3.27
2019-05-30T03:59:24.703Z,3.03
2019-05-30T04:00:18.534Z,3.50
2019-05-30T04:01:10.014Z,3.30
2019-05-30T04:02:28.766Z,3.37
2019-05-30T04:03:40.156Z,3.40
2019-05-30T04:04:30.062Z,2.93
2019-05-30T04:05:21.942Z,3.40
2019-05-30T04:06:14.486Z,3.40
2019-05-30T04:07:06.712Z,3.57
2019-05-30T04:07:55.315Z,3.57
2019-05-30T04:08:45.454Z,3.50
2019-05-30T04:09:32.524Z,3.60
2019-05-30T04:10:21.192Z,3.37
2019-05-30T04:11:11.911Z,3.40
2019-05-30T04:12:27.645Z,3.10
2019-05-30T04:13:45.390Z,3.30
2019-05-30T04:14:34.875Z,3.10
2019-05-30T04:15:29.990Z,3.17
2019-05-30T04:16:16.233Z,2.90
2019-05-30T04:17:02.221Z,2.97
2019-05-30T04:17:48.027Z,3.67
2019-05-30T04:18:33.837Z,3.33
2019-05-30T04:19:20.319Z,3.23
2019-05-30T04:20:07.105Z,3.50
2019-05-30T04:20:53.513Z,3.70
2019-05-30T04:21:39.937Z,3.13
2019-05-30T04:22:26.277Z,3.37
2019-05-30T04:23:14.532Z,3.20
2019-05-30T04:24:02.620Z,3.67
2019-05-30T04:24:49.017Z,3.10
2019-05-30T04:25:35.711Z,3.00
2019-05-30T04:26:22.970Z,3.37
2019-05-30T04:27:09.924Z,2.80
2019-05-30T04:27:56.429Z,3.50
2019-05-30T04:28:42.100Z,3.10
2019-05-30T04:29:28.284Z,3.00
2019-05-30T04:30:14.478Z,3.10
2019-05-30T04:31:02.141Z,2.90
2019-05-30T04:31:48.457Z,3.20
2019-05-30T04:32:34.157Z,2.80
2019-05-30T04:33:32.671Z,3.23
2019-05-30T04:34:08.352Z,3.07
2019-05-30T04:34:54.457Z,3.33
2019-05-30T04:35:40.614Z,3.13
2019-05-30T04:36:26.759Z,3.17
2019-05-30T04:37:12.599Z,3.10
2019-05-30T04:37:58.650Z,3.07
2019-05-30T04:38:44.323Z,2.80
2019-05-30T04:39:30.542Z,2.67
2019-05-30T04:40:17.627Z,2.70
2019-05-30T04:41:04.137Z,2.83
2019-05-30T04:41:49.800Z,3.10
2019-05-30T04:42:35.973Z,2.70
2019-05-30T04:43:22.209Z,3.00
2019-05-30T04:44:09.672Z,3.33
2019-05-30T04:44:55.583Z,2.83
2019-05-30T04:45:41.972Z,2.80
2019-05-30T04:46:28.295Z,2.53
2019-05-30T04:47:14.366Z,3.30
2019-05-30T04:48:01.932Z,3.17
2019-05-30T04:48:48.162Z,2.80
2019-05-30T04:49:37.356Z,3.00
2019-05-30T04:50:25.428Z,3.07
2019-05-30T04:51:12.544Z,3.10
2019-05-30T04:51:59.330Z,2.87
2019-05-30T04:52:45.727Z,3.23
2019-05-30T04:53:31.649Z,2.90
2019-05-30T04:54:19.231Z,3.37
2019-05-30T04:55:07.034Z,3.17
2019-05-30T04:55:52.715Z,3.50
2019-05-30T04:56:38.435Z,2.67
2019-05-30T04:57:26.954Z,3.47
2019-05-30T04:58:13.448Z,3.30
2019-05-30T04:58:59.408Z,3.07
2019-05-30T04:59:45.090Z,2.83
2019-05-30T05:00:31.237Z,3.30
2019-05-30T05:01:17.693Z,3.27
2019-05-30T05:02:04.311Z,2.97
2019-05-30T05:02:50.414Z,2.50
2019-05-30T05:03:45.691Z,3.10
2019-05-30T05:04:23.989Z,3.10
2019-05-30T05:05:11.417Z,2.80
2019-05-30T05:05:57.685Z,3.07
2019-05-30T05:06:44.643Z,3.20
2019-05-30T05:07:31.102Z,3.03
2019-05-30T05:08:17.910Z,3.23
2019-05-30T05:09:05.384Z,3.23
2019-05-30T05:09:51.730Z,3.37
2019-05-30T05:10:37.895Z,3.07
2019-05-30T05:11:25.414Z,3.50
2019-05-30T05:12:12.084Z,3.00
2019-05-30T05:12:58.617Z,3.23
2019-05-30T05:13:44.808Z,3.00
2019-05-30T05:14:31.357Z,3.03
2019-05-30T05:15:18.666Z,2.97
2019-05-30T05:16:21.970Z,2.90
2019-05-30T05:16:52.664Z,3.27
2019-05-30T05:17:38.911Z,3.37
2019-05-30T05:18:25.191Z,3.23
2019-05-30T05:19:11.236Z,3.23
2019-05-30T05:19:58.752Z,2.93
2019-05-30T05:20:44.574Z,2.60
2019-05-30T05:21:30.176Z,2.90
2019-05-30T05:22:17.025Z,3.20
2019-05-30T05:23:02.999Z,2.93
2019-05-30T05:23:48.741Z,2.80
2019-05-30T05:24:34.402Z,2.63
2019-05-30T05:25:21.472Z,3.07
2019-05-30T05:26:07.555Z,3.37
2019-05-30T05:26:53.215Z,3.20
2019-05-30T05:27:39.071Z,3.03
2019-05-30T05:28:25.207Z,3.17
2019-05-30T05:29:10.915Z,2.93
2019-05-30T05:29:56.589Z,3.00
2019-05-30T05:30:42.325Z,2.87
2019-05-30T05:31:28.080Z,3.10
2019-05-30T05:32:14.286Z,2.90
2019-05-30T05:33:00.997Z,2.90
2019-05-30T05:33:56.384Z,3.23
2019-05-30T05:34:36.198Z,3.40
2019-05-30T05:35:23.017Z,2.80
2019-05-30T05:36:09.386Z,2.80
2019-05-30T05:36:55.157Z,3.50
2019-05-30T05:37:40.954Z,3.07
2019-05-30T05:38:28.411Z,3.00
2019-05-30T05:39:14.547Z,3.30
2019-05-30T05:40:00.867Z,3.07
2019-05-30T05:40:46.844Z,2.90
2019-05-30T05:41:32.535Z,3.00
2019-05-30T05:42:18.176Z,3.27
2019-05-30T05:43:03.866Z,2.97
2019-05-30T05:43:49.535Z,3.00
2019-05-30T05:44:35.267Z,2.70
2019-05-30T05:45:22.726Z,2.83
2019-05-30T05:46:08.799Z,3.20
2019-05-30T05:46:54.453Z,3.07
2019-05-30T05:47:40.175Z,3.30
2019-05-30T05:48:26.350Z,2.90
2019-05-30T05:49:12.140Z,3.00
2019-05-30T05:49:58.006Z,3.10
2019-05-30T05:50:44.201Z,2.80
2019-05-30T05:51:30.291Z,2.87
2019-05-30T05:52:16.980Z,2.90
2019-05-30T05:53:03.217Z,3.20
2019-05-30T05:53:49.613Z,3.00
2019-05-30T05:54:35.819Z,3.10
2019-05-30T05:55:22.905Z,2.93
2019-05-30T05:56:08.849Z,2.90
2019-05-30T05:56:55.011Z,2.90
2019-05-30T05:57:41.158Z,3.47
2019-05-30T05:58:27.263Z,2.93
2019-05-30T05:59:13.460Z,3.00
2019-05-30T05:59:59.603Z,3.13
2019-05-30T06:00:45.711Z,2.77
2019-05-30T06:01:31.940Z,3.23
2019-05-30T06:02:19.313Z,3.30
2019-05-30T06:03:05.799Z,3.47
2019-05-30T06:03:51.886Z,3.00
2019-05-30T06:04:38.050Z,3.53
2019-05-30T06:05:24.385Z,3.17
2019-05-30T06:06:10.635Z,2.97
2019-05-30T06:06:56.531Z,2.83
2019-05-30T06:07:42.687Z,2.90
2019-05-30T06:08:29.150Z,3.20
2019-05-30T06:09:16.411Z,3.20
2019-05-30T06:10:02.662Z,3.10
2019-05-30T06:10:48.568Z,3.20
2019-05-30T06:11:34.722Z,3.17
2019-05-30T06:12:21.736Z,2.97
2019-05-30T06:13:08.084Z,3.30
2019-05-30T06:13:54.449Z,2.83
2019-05-30T06:14:40.699Z,3.10
2019-05-30T06:15:27.320Z,3.20
2019-05-30T06:16:13.632Z,3.27
2019-05-30T06:16:59.839Z,2.70
2019-05-30T06:17:45.971Z,2.47
2019-05-30T06:18:32.392Z,2.70
2019-05-30T06:19:19.128Z,2.80
2019-05-30T06:20:05.827Z,2.97
2019-05-30T06:20:51.733Z,3.07
2019-05-30T06:21:52.771Z,2.70
2019-05-30T06:22:25.899Z,3.00
2019-05-30T06:23:11.813Z,2.77
2019-05-30T06:23:57.939Z,2.70
2019-05-30T06:24:44.036Z,3.00
2019-05-30T06:25:32.744Z,3.23
2019-05-30T06:26:19.808Z,3.10
2019-05-30T06:27:06.203Z,2.70
2019-05-30T06:27:52.338Z,2.50
2019-05-30T06:28:38.451Z,2.67
2019-05-30T06:29:24.363Z,2.97
2019-05-30T06:30:11.142Z,3.23
2019-05-30T06:30:59.101Z,2.83
2019-05-30T06:31:45.681Z,3.20
2019-05-30T06:32:31.858Z,2.70
2019-05-30T06:33:18.583Z,2.50
2019-05-30T06:34:05.008Z,3.00
2019-05-30T06:34:51.111Z,2.93
2019-05-30T06:35:37.549Z,2.80
2019-05-30T06:36:25.005Z,3.03
2019-05-30T06:37:12.142Z,2.90
2019-05-30T06:37:58.578Z,2.83
2019-05-30T06:38:44.642Z,3.13
2019-05-30T06:39:30.450Z,3.00
2019-05-30T06:40:16.593Z,2.77
2019-05-30T06:41:02.568Z,2.87
2019-05-30T06:41:53.646Z,2.90
2019-05-30T06:42:39.649Z,3.10
2019-05-30T06:43:26.189Z,3.10
2019-05-30T06:44:12.931Z,2.67
2019-05-30T06:44:58.764Z,3.00
2019-05-30T06:45:46.299Z,2.80
2019-05-30T06:46:33.401Z,2.70
2019-05-30T06:47:20.188Z,2.90
2019-05-30T06:48:06.504Z,3.00
2019-05-30T06:48:52.591Z,3.00
2019-05-30T06:49:39.448Z,3.40
2019-05-30T06:50:25.373Z,2.87
2019-05-30T06:51:14.418Z,2.73
2019-05-30T06:51:59.607Z,3.00
2019-05-30T06:52:45.847Z,3.30
2019-05-30T06:53:49.115Z,2.63
2019-05-30T06:54:35.745Z,2.80
2019-05-30T06:55:23.083Z,2.80
2019-05-30T06:56:10.100Z,2.97
2019-05-30T06:56:56.209Z,2.87
2019-05-30T06:57:43.107Z,2.90
2019-05-30T06:58:46.905Z,3.03
2019-05-30T06:59:17.521Z,3.13
2019-05-30T07:00:05.728Z,3.00
2019-05-30T07:00:51.757Z,2.77
2019-05-30T07:01:37.907Z,3.47
2019-05-30T07:02:24.320Z,3.20
2019-05-30T07:03:10.462Z,3.03
2019-05-30T07:03:56.946Z,2.90
2019-05-30T07:04:51.635Z,2.90
2019-05-30T07:05:32.923Z,3.00
2019-05-30T07:06:19.338Z,2.90
2019-05-30T07:07:06.258Z,2.77
2019-05-30T07:07:53.495Z,2.60
2019-05-30T07:08:39.771Z,2.50
2019-05-30T07:09:27.145Z,2.50
2019-05-30T07:10:14.022Z,2.47
2019-05-30T07:11:00.266Z,2.60
2019-05-30T07:11:46.560Z,2.47
2019-05-30T07:12:33.207Z,2.67
2019-05-30T07:13:20.754Z,2.70
2019-05-30T07:14:07.012Z,2.53
2019-05-30T07:14:53.104Z,2.20
2019-05-30T07:15:38.888Z,2.20
2019-05-30T07:16:25.345Z,2.33
2019-05-30T07:17:11.587Z,2.80
2019-05-30T07:17:58.044Z,3.07
2019-05-30T07:18:44.676Z,2.47
2019-05-30T07:19:31.673Z,2.30
2019-05-30T07:20:17.817Z,2.33
2019-05-30T07:21:03.930Z,2.53
2019-05-30T07:21:50.158Z,2.43
2019-05-30T07:22:36.433Z,1.97
2019-05-30T07:23:23.761Z,2.20
2019-05-30T07:24:09.801Z,2.53
2019-05-30T07:24:55.986Z,2.20
2019-05-30T07:25:42.135Z,2.27
2019-05-30T07:26:27.900Z,2.47
2019-05-30T07:27:14.016Z,2.23
2019-05-30T07:27:59.730Z,1.90
2019-05-30T07:28:45.400Z,2.27
2019-05-30T07:29:32.114Z,2.30
2019-05-30T07:30:18.810Z,2.30
2019-05-30T07:31:04.647Z,2.13
2019-05-30T07:31:50.911Z,2.70
2019-05-30T07:32:37.117Z,2.20
2019-05-30T07:33:23.947Z,2.20
2019-05-30T07:34:10.209Z,2.17
2019-05-30T07:35:06.146Z,2.70
2019-05-30T07:35:43.711Z,2.13
2019-05-30T07:36:30.320Z,2.03
2019-05-30T07:37:16.154Z,2.27
2019-05-30T07:38:02.244Z,2.90
2019-05-30T07:38:48.258Z,2.10
2019-05-30T07:39:37.304Z,2.30
2019-05-30T07:40:21.958Z,2.30
2019-05-30T07:41:07.932Z,2.50
2019-05-30T07:42:05.833Z,2.40
2019-05-30T07:42:41.726Z,2.30
2019-05-30T07:43:28.667Z,2.23
2019-05-30T07:44:15.903Z,2.10
2019-05-30T07:45:02.780Z,1.90
2019-05-30T07:45:57.624Z,2.10
2019-05-30T07:46:37.584Z,2.60
2019-05-30T07:47:23.704Z,2.33
2019-05-30T07:48:10.009Z,2.67
2019-05-30T07:48:56.420Z,2.47
2019-05-30T07:49:43.055Z,2.30
2019-05-30T07:50:30.431Z,2.40
2019-05-30T07:51:16.775Z,1.90
2019-05-30T07:52:03.059Z,2.23
2019-05-30T07:52:49.590Z,2.20
2019-05-30T07:53:36.111Z,2.40
2019-05-30T07:54:22.595Z,2.07
2019-05-30T07:55:10.786Z,2.30
2019-05-30T07:55:57.351Z,2.10
2019-05-30T07:56:43.384Z,2.27
2019-05-30T07:57:32.833Z,2.33
2019-05-30T07:58:19.764Z,2.20
2019-05-30T07:59:06.252Z,2.10
2019-05-30T07:59:52.408Z,2.00
2019-05-30T08:00:39.164Z,2.23
2019-05-30T08:01:26.340Z,2.03
2019-05-30T08:02:13.240Z,2.40
2019-05-30T08:03:05.755Z,2.03
2019-05-30T08:03:52.232Z,2.40
2019-05-30T08:04:38.520Z,2.10
2019-05-30T08:05:25.067Z,2.10
2019-05-30T08:06:11.783Z,2.33
2019-05-30T08:06:57.950Z,1.97
2019-05-30T08:07:44.333Z,2.13
2019-05-30T08:08:31.979Z,2.40
2019-05-30T08:09:18.381Z,2.20
2019-05-30T08:10:04.811Z,2.13
2019-05-30T08:10:51.422Z,1.83
2019-05-30T08:11:39.147Z,1.90
2019-05-30T08:12:27.971Z,2.30
2019-05-30T08:13:14.279Z,2.30
2019-05-30T08:14:00.272Z,2.50
2019-05-30T08:14:46.310Z,2.10
2019-05-30T08:15:33.506Z,2.00
2019-05-30T08:16:19.831Z,2.27
2019-05-30T08:17:05.692Z,1.73
2019-05-30T08:17:52.510Z,2.07
2019-05-30T08:18:38.436Z,1.90
2019-05-30T08:19:24.940Z,2.33
2019-05-30T08:20:11.558Z,2.17
2019-05-30T08:20:57.707Z,1.77
2019-05-30T08:21:43.676Z,2.03
2019-05-30T08:22:30.057Z,2.03
2019-05-30T08:23:17.553Z,2.10
2019-05-30T08:24:04.338Z,1.90
2019-05-30T08:24:55.883Z,1.97
2019-05-30T08:25:45.755Z,2.20
2019-05-30T08:26:32.886Z,2.00
2019-05-30T08:27:18.879Z,2.07
2019-05-30T08:28:04.953Z,2.30
2019-05-30T08:28:50.767Z,2.10
2019-05-30T08:29:37.075Z,1.90
2019-05-30T08:30:23.469Z,2.33
2019-05-30T08:31:09.983Z,1.97
2019-05-30T08:31:56.750Z,2.03
2019-05-30T08:32:43.707Z,2.10
2019-05-30T08:33:31.348Z,2.20
2019-05-30T08:34:17.263Z,1.83
2019-05-30T08:35:05.573Z,2.30
2019-05-30T08:35:51.567Z,2.20
2019-05-30T08:36:37.663Z,2.33
2019-05-30T08:37:24.333Z,2.30
2019-05-30T08:38:10.445Z,2.40
2019-05-30T08:38:57.240Z,2.17
2019-05-30T08:39:43.959Z,2.20
2019-05-30T08:40:31.111Z,2.67
2019-05-30T08:41:17.261Z,2.10
2019-05-30T08:42:03.926Z,2.47
2019-05-30T08:42:50.697Z,2.33
2019-05-30T08:43:37.568Z,1.97
2019-05-30T08:44:23.843Z,2.30
2019-05-30T08:45:11.104Z,2.20
2019-05-30T08:45:57.398Z,2.07
2019-05-30T08:46:43.995Z,2.50
2019-05-30T08:47:31.773Z,1.98
2019-05-30T08:48:18.875Z,2.33
2019-05-30T08:49:05.011Z,2.17
2019-05-30T08:49:51.678Z,2.10
2019-05-30T08:50:42.517Z,1.90
2019-05-30T08:51:26.194Z,2.23
2019-05-30T08:52:12.259Z,2.20
2019-05-30T08:52:58.638Z,2.12
2019-05-30T08:53:44.951Z,2.13
2019-05-30T08:54:32.247Z,2.30
2019-05-30T08:55:19.079Z,1.70
2019-05-30T08:56:05.906Z,2.00
2019-05-30T08:56:52.152Z,1.67
2019-05-30T08:57:38.717Z,1.97
2019-05-30T08:58:25.247Z,2.10
2019-05-30T08:59:11.714Z,2.40
2019-05-30T08:59:57.706Z,1.87
2019-05-30T09:00:43.936Z,2.07
2019-05-30T09:01:30.054Z,2.07
2019-05-30T09:02:16.826Z,1.73
2019-05-30T09:03:06.513Z,1.97
2019-05-30T09:03:55.207Z,1.90
2019-05-30T09:04:41.970Z,1.83
2019-05-30T09:05:28.402Z,2.00
2019-05-30T09:06:14.273Z,2.00
2019-05-30T09:07:00.563Z,1.80
2019-05-30T09:07:46.508Z,2.17
2019-05-30T09:08:32.954Z,1.90
2019-05-30T09:09:19.393Z,1.90
2019-05-30T09:10:06.166Z,1.93
2019-05-30T09:10:52.206Z,2.20
2019-05-30T09:11:39.301Z,2.20
2019-05-30T09:12:26.557Z,1.97
2019-05-30T09:13:12.835Z,1.97
2019-05-30T09:14:00.208Z,2.30
2019-05-30T09:14:46.956Z,1.87
2019-05-30T09:15:33.140Z,2.37
2019-05-30T09:16:19.273Z,2.30
2019-05-30T09:17:06.009Z,1.60
2019-05-30T09:17:53.248Z,2.27
2019-05-30T09:18:41.498Z,2.10
2019-05-30T09:19:28.020Z,1.90
2019-05-30T09:20:16.454Z,2.20
2019-05-30T09:21:02.337Z,2.10
2019-05-30T09:21:48.119Z,2.00
2019-05-30T09:22:34.315Z,2.20
2019-05-30T09:23:20.093Z,2.23
2019-05-30T09:24:06.301Z,2.43
2019-05-30T09:24:52.244Z,2.00
2019-05-30T09:25:38.901Z,1.90
2019-05-30T09:26:26.000Z,2.03
2019-05-30T09:27:11.695Z,2.07
2019-05-30T09:27:57.876Z,2.10
2019-05-30T09:28:44.235Z,1.90
2019-05-30T09:29:39.661Z,2.33
2019-05-30T09:30:26.378Z,2.30
2019-05-30T09:31:16.408Z,2.03
2019-05-30T09:32:03.314Z,2.13
2019-05-30T09:32:49.786Z,2.10
2019-05-30T09:33:36.577Z,2.00
2019-05-30T09:34:22.939Z,2.00
2019-05-30T09:35:10.178Z,2.00
2019-05-30T09:36:09.956Z,1.70
2019-05-30T09:36:45.153Z,2.07
2019-05-30T09:37:32.189Z,1.73
2019-05-30T09:38:18.817Z,2.20
2019-05-30T09:39:07.172Z,2.03
2019-05-30T09:39:52.953Z,2.20
2019-05-30T09:40:39.349Z,1.90
2019-05-30T09:41:26.652Z,1.50
2019-05-30T09:42:12.857Z,2.30
2019-05-30T09:42:59.231Z,2.10
2019-05-30T09:43:46.344Z,2.13
2019-05-30T09:44:32.830Z,2.70
2019-05-30T09:45:20.114Z,2.43
2019-05-30T09:46:06.772Z,2.20
2019-05-30T09:46:53.157Z,2.20
2019-05-30T09:47:41.306Z,2.40
2019-05-30T09:48:26.924Z,2.27
2019-05-30T09:49:13.433Z,2.00
2019-05-30T09:49:59.487Z,2.10
2019-05-30T09:50:45.311Z,2.00
2019-05-30T09:51:31.571Z,2.37
2019-05-30T09:52:17.591Z,1.87
2019-05-30T09:53:04.848Z,1.93
2019-05-30T09:53:51.164Z,2.10
2019-05-30T09:54:37.124Z,2.17
2019-05-30T09:55:23.676Z,2.30
2019-05-30T09:56:10.137Z,2.10
2019-05-30T09:56:57.355Z,2.00
2019-05-30T09:57:44.327Z,2.33
2019-05-30T09:58:31.705Z,2.10
2019-05-30T09:59:17.812Z,2.30
2019-05-30T10:00:05.547Z,2.30
2019-05-30T10:00:52.338Z,2.00
2019-05-30T10:01:38.513Z,1.90
2019-05-30T10:02:24.413Z,1.90
2019-05-30T10:03:10.857Z,2.03
2019-05-30T10:03:57.091Z,2.40
2019-05-30T10:04:44.061Z,2.30
2019-05-30T10:05:31.217Z,2.07
2019-05-30T10:06:28.925Z,2.40
2019-05-30T10:07:08.131Z,2.50
2019-05-30T10:07:54.387Z,2.40
2019-05-30T10:08:40.654Z,2.10
2019-05-30T10:09:27.187Z,2.23
2019-05-30T10:10:14.067Z,2.20
2019-05-30T10:11:00.367Z,2.90
2019-05-30T10:11:47.263Z,2.37
2019-05-30T10:12:33.185Z,2.73
2019-05-30T10:13:19.376Z,2.57
2019-05-30T10:14:05.502Z,2.37
2019-05-30T10:14:51.275Z,2.40
2019-05-30T10:15:37.557Z,2.30
2019-05-30T10:16:23.802Z,2.50
2019-05-30T10:17:10.223Z,2.73
2019-05-30T10:17:56.969Z,2.07
2019-05-30T10:18:44.282Z,2.03
2019-05-30T10:19:31.507Z,2.50
2019-05-30T10:20:17.793Z,2.50
2019-05-30T10:21:03.888Z,2.03
2019-05-30T10:21:51.677Z,2.23
2019-05-30T10:22:38.123Z,2.37
2019-05-30T10:23:24.660Z,2.30
2019-05-30T10:24:10.976Z,1.87
2019-05-30T10:24:59.252Z,2.10